Plainfield, IA

5:20 PM CDT on September 20, 2014 (GMT -0500)
Wartburg College Observatory | Change Station
CLOSE
Current Station
Personal Weather Station
Location: Waverly, IA
Elevation: 928 ft
Nearby Weather Stations

Elev 928 ft 42.73 °N, 92.49 °W | Updated 3 seconds ago

Clear
Clear
80.9 °F
Feels Like 82 °F
N
12.7
Wind Variable Wind from West
Gusts 12.7 mph

Today
High -- | Low -- °F
--% Chance of Precip.
Yesterday
High -- | Low -- °F
Precip. -- in
6:55 AM 7:11 PM
Waning Crescent, 10% visible
Pressure 29.80 in
Visibility 10.0 miles
Clouds Few 6500 ft
Heat Index 82 °F
Dew Point 60 °F
Humidity 50%
Rainfall 0.38 in
Snow Depth Not available.
UV 1.0 out of 12
Pollen 3.20 out of 12
Air Quality Not available.
Flu Activity Not available.
METAR KCCY 202215Z AUTO 28007G12KT 10SM FEW065 26/13 A2980 RMK AO2

More Conditions Fewer Conditions

Pressure 29.80 in
Visibility 10.0 miles
Clouds Few 6500 ft
Heat Index 82 °F
Dew Point 60 °F
Humidity 50%
Rainfall 0.38 in
Snow Depth Not available.
UV 1.0 out of 12
Pollen 3.20 out of 12
Air Quality Not available.
Flu Activity Not available.
METAR KCCY 202215Z AUTO 28007G12KT 10SM FEW065 26/13 A2980 RMK AO2

More Conditions Fewer Conditions

10-Day Weather Forecast

Almanac

Astronomy

Sep. 20, 2014 Rise Set
Actual Time 6:55 AM CDT 7:11 PM CDT
Civil Twilight 6:26 AM CDT 7:39 PM CDT
Nautical Twilight 5:53 AM CDT 8:12 PM CDT
Astronomical Twilight 5:19 AM CDT 8:46 PM CDT
Moon 3:31 AM CDT 5:17 PM CDT
Length of Visible Light 13h 12m
Length of Day
12h 15m
Tomorrow will be 2m 53s shorter.
Waning Crescent, 10% of the Moon is Illuminated
Today
Waning Crescent
Sep 24
New
Oct 1
First Quarter
Oct 8
Full
Oct 15
Last Quarter

Today's Extremes

State Highs State Lows

Community

WunderPhotos

Upload Photos

1,754,967 photos uploaded!

WunderBlogs® & News

Nearby

Snow Depth

Station Depth Elevation
No new snow has been reported.

Earthquake Activity

City Distance Mag. Time & Date
No recent earthquake activity has been reported nearby.
Minimum magnitude displayed is 2.5.

Coastal Water Temperatures

Place Temperature
No Stations Reporting

Nearby Weather Stations